Time;durP1;ratioP1;P1;durP2;ratioP2;P2;SDS_P1;SDS_P2;PMS_P1;PMS_P2;Temp;Humidity;BMP_temperature;BMP_pressure;BME280_temperature;BME280_humidity;BME280_pressure;Samples;Min_cycle;Max_cycle;Signal;HPM_P1;HPM_P2
2021/10/20 00:01:54;;;;;;;2.38;1.80;;;11.50;96.10;;;;;;5034583;28;20667;-88
2021/10/20 00:04:36;;;;;;;2.25;2.03;;;11.50;96.20;;;;;;5036573;28;20206;-88
2021/10/20 00:07:19;;;;;;;2.63;2.17;;;11.40;96.50;;;;;;5042702;28;20218;-88
2021/10/20 00:09:46;;;;;;;2.25;2.05;;;11.40;96.70;;;;;;5042442;28;20635;-88
2021/10/20 02:46:03;;;;;;;1.95;1.50;;;10.10;98.20;;;;;;5001495;28;20222;-87
2021/10/20 02:48:34;;;;;;;4.05;1.40;;;10.00;98.20;;;;;;5002750;28;20194;-87
2021/10/20 02:51:00;;;;;;;2.67;1.30;;;10.00;98.30;;;;;;5003078;28;20585;-87
2021/10/20 02:53:27;;;;;;;1.83;1.52;;;10.00;98.20;;;;;;5002608;28;20282;-88
2021/10/20 02:56:15;;;;;;;2.17;1.42;;;10.00;98.20;;;;;;5002495;28;20290;-88
2021/10/20 02:59:21;;;;;;;2.10;1.52;;;10.00;98.10;;;;;;4990356;28;20247;-87
2021/10/20 03:01:49;;;;;;;4.13;3.17;;;10.00;98.00;;;;;;5015833;28;20239;-88
2021/10/20 03:04:16;;;;;;;4.43;2.15;;;9.90;98.70;;;;;;5020549;28;20203;-87
2021/10/20 03:06:43;;;;;;;3.53;2.10;;;9.80;98.80;;;;;;5020155;28;20234;-88
2021/10/20 03:09:21;;;;;;;2.47;2.03;;;9.70;99.10;;;;;;5022562;28;20616;-87
2021/10/20 03:11:48;;;;;;;2.53;1.65;;;9.70;99.10;;;;;;5020612;28;20207;-87
2021/10/20 03:14:15;;;;;;;1.83;1.30;;;9.80;98.90;;;;;;5020952;28;20229;-87
2021/10/20 03:16:57;;;;;;;2.72;2.10;;;9.90;98.70;;;;;;5020596;28;20235;-88
2021/10/20 03:19:38;;;;;;;3.83;2.70;;;9.80;98.60;;;;;;5000110;28;20192;-87
2021/10/20 03:22:33;;;;;;;5.93;3.00;;;9.80;98.70;;;;;;4997817;28;20578;-87
2021/10/20 03:25:00;;;;;;;5.07;3.13;;;9.80;98.80;;;;;;5022597;28;20209;-87
2021/10/20 03:27:27;;;;;;;5.07;3.55;;;9.80;98.70;;;;;;5038147;28;20194;-88
2021/10/20 03:30:08;;;;;;;5.00;3.40;;;9.80;98.70;;;;;;5031378;28;20202;-88
2021/10/20 03:32:55;;;;;;;5.20;3.20;;;9.70;98.70;;;;;;5035936;28;20209;-87
2021/10/20 03:35:22;;;;;;;4.05;3.30;;;9.70;98.70;;;;;;5042402;28;20225;-88
2021/10/20 03:37:49;;;;;;;5.35;2.80;;;9.70;98.70;;;;;;5041719;28;20208;-88
2021/10/20 03:40:16;;;;;;;6.03;3.13;;;9.70;98.70;;;;;;5032157;28;20238;-88
2021/10/20 03:42:44;;;;;;;3.58;2.80;;;9.70;98.50;;;;;;5021791;28;20301;-88
2021/10/20 03:45:12;;;;;;;3.65;3.05;;;9.70;98.50;;;;;;5023577;28;20245;-88
2021/10/20 03:47:40;;;;;;;6.05;4.22;;;9.70;98.70;;;;;;5021402;28;20205;-88
2021/10/20 03:50:09;;;;;;;7.00;4.60;;;9.70;98.30;;;;;;5021296;28;20237;-88
2021/10/20 03:52:36;;;;;;;8.15;4.20;;;9.70;98.30;;;;;;5016522;28;20200;-88
2021/10/20 03:55:04;;;;;;;4.90;3.67;;;9.70;98.30;;;;;;5023248;28;20231;-88
2021/10/20 03:57:34;;;;;;;6.43;3.78;;;9.60;98.40;;;;;;5022096;28;20552;-88
2021/10/20 04:00:01;;;;;;;4.00;2.92;;;9.60;98.50;;;;;;5019311;28;20227;-88
2021/10/20 04:02:28;;;;;;;4.35;3.33;;;9.60;98.40;;;;;;5021120;28;20290;-88
2021/10/20 04:04:55;;;;;;;4.65;3.25;;;9.60;98.30;;;;;;5021945;28;20211;-88
2021/10/20 04:07:23;;;;;;;5.82;3.22;;;9.60;98.20;;;;;;5021849;28;20211;-88
2021/10/20 04:09:50;;;;;;;4.68;2.97;;;9.60;98.20;;;;;;5020459;28;20191;-88
2021/10/20 04:12:17;;;;;;;4.57;2.58;;;9.50;98.30;;;;;;5028238;28;20928;-88
2021/10/20 04:14:44;;;;;;;4.50;2.50;;;9.50;98.50;;;;;;5026882;28;20574;-88
2021/10/20 04:17:11;;;;;;;3.47;2.30;;;9.50;98.50;;;;;;5021699;28;20218;-88
2021/10/20 04:19:37;;;;;;;2.50;2.30;;;9.50;98.50;;;;;;5021448;28;20210;-87
2021/10/20 04:22:04;;;;;;;4.85;2.35;;;9.50;98.60;;;;;;5030995;28;20225;-88
2021/10/20 04:24:32;;;;;;;2.40;2.15;;;9.50;98.60;;;;;;5035910;28;20198;-88
2021/10/20 04:27:00;;;;;;;3.45;2.50;;;9.50;98.60;;;;;;5040492;28;20222;-89
2021/10/20 04:29:26;;;;;;;3.35;2.10;;;9.50;98.40;;;;;;5041499;28;20195;-88
2021/10/20 04:31:53;;;;;;;4.13;2.05;;;9.50;98.50;;;;;;5038381;28;20241;-89
2021/10/20 04:34:20;;;;;;;3.28;2.00;;;9.50;98.50;;;;;;5021770;28;20230;-88
2021/10/20 04:36:47;;;;;;;2.55;2.03;;;9.50;98.50;;;;;;5020935;28;20242;-88
2021/10/20 04:39:14;;;;;;;2.28;1.80;;;9.50;98.40;;;;;;5012037;28;20218;-88
2021/10/20 04:41:42;;;;;;;3.47;1.95;;;9.50;98.30;;;;;;5001206;28;20718;-88
2021/10/20 04:44:09;;;;;;;2.40;1.90;;;9.50;98.20;;;;;;5020539;28;20215;-88
2021/10/20 04:46:36;;;;;;;4.00;2.30;;;9.50;98.30;;;;;;5020444;28;20223;-88
2021/10/20 04:49:03;;;;;;;2.67;2.20;;;9.50;98.30;;;;;;5020615;28;20298;-87
2021/10/20 04:51:30;;;;;;;3.28;1.90;;;9.50;98.40;;;;;;5018774;28;20238;-87
2021/10/20 04:53:57;;;;;;;5.22;2.30;;;9.50;98.40;;;;;;5024507;28;20564;-87
2021/10/20 04:57:12;;;;;;;2.28;1.98;;;9.50;98.50;;;;;;5014768;28;20296;-87
2021/10/20 04:59:40;;;;;;;1.90;1.70;;;9.50;98.50;;;;;;5002895;28;20193;-88
2021/10/20 05:02:07;;;;;;;2.05;1.85;;;9.50;98.60;;;;;;5001589;28;20656;-87
2021/10/20 05:05:21;;;;;;;3.33;1.80;;;9.50;98.60;;;;;;5001983;28;20198;-87
2021/10/20 05:54:18;;;;;;;4.32;2.25;;;9.40;99.10;;;;;;5039341;28;20266;-88
2021/10/20 05:56:51;;;;;;;3.72;2.22;;;9.40;99.10;;;;;;5029266;28;20662;-87
2021/10/20 05:59:39;;;;;;;3.65;2.40;;;9.40;99.10;;;;;;5038823;28;20206;-87
2021/10/20 06:02:22;;;;;;;3.95;2.63;;;9.40;99.00;;;;;;5032768;28;20208;-87
2021/10/20 06:04:51;;;;;;;3.72;2.50;;;9.30;99.30;;;;;;5039328;28;20195;-87
2021/10/20 06:07:17;;;;;;;2.88;2.33;;;9.40;99.60;;;;;;5039515;28;20210;-87
2021/10/20 06:09:46;;;;;;;3.25;2.47;;;9.50;99.40;;;;;;5037851;28;20198;-88
2021/10/20 07:02:14;;;;;;;7.05;2.30;;;10.00;99.10;;;;;;5620001;22;20567;-86
2021/10/20 07:04:46;;;;;;;6.80;2.40;;;10.10;99.40;;;;;;5018592;28;20230;-87
2021/10/20 07:07:13;;;;;;;7.63;2.50;;;10.10;99.50;;;;;;5023469;28;20209;-86
2021/10/20 07:31:16;;;;;;;2.97;2.47;;;10.90;99.90;;;;;;5290011;23;20226;-90
2021/10/20 07:34:10;;;;;;;5.32;3.08;;;10.90;99.90;;;;;;5044692;28;20252;-88
2021/10/20 07:43:42;;;;;;;6.35;2.80;;;11.20;99.60;;;;;;5043146;28;20198;-89
2021/10/20 07:46:08;;;;;;;5.68;2.63;;;11.30;99.60;;;;;;5044200;28;20198;-90
2021/10/20 07:48:37;;;;;;;5.93;2.50;;;11.40;99.70;;;;;;5042952;28;20258;-88
2021/10/20 08:33:05;;;;;;;3.58;2.53;;;13.80;94.10;;;;;;6215853;22;20231;-90
2021/10/20 08:35:32;;;;;;;4.28;2.40;;;14.00;93.60;;;;;;5037509;28;20225;-90
2021/10/20 08:38:03;;;;;;;5.03;2.65;;;14.10;93.30;;;;;;5037348;28;20654;-92
2021/10/20 08:40:32;;;;;;;5.35;2.40;;;14.30;92.90;;;;;;5035181;28;20230;-89
2021/10/20 08:43:00;;;;;;;6.47;2.33;;;14.50;92.00;;;;;;5040342;28;20261;-90
2021/10/20 08:45:27;;;;;;;6.50;2.42;;;14.60;91.40;;;;;;5036004;28;20230;-89
2021/10/20 08:47:54;;;;;;;6.32;2.03;;;14.80;91.40;;;;;;5037127;28;20282;-89
2021/10/20 08:50:24;;;;;;;3.40;2.47;;;15.30;90.70;;;;;;5039881;28;20294;-88
2021/10/20 08:52:52;;;;;;;3.45;2.25;;;15.70;89.10;;;;;;5041390;28;20213;-88
2021/10/20 08:55:20;;;;;;;2.40;1.60;;;16.20;83.60;;;;;;5035140;28;20244;-88
2021/10/20 08:57:49;;;;;;;2.47;1.70;;;16.50;76.80;;;;;;5037042;28;20317;-89
2021/10/20 09:00:29;;;;;;;1.90;1.65;;;16.80;70.00;;;;;;5037927;28;20297;-89
2021/10/20 09:03:06;;;;;;;4.25;1.60;;;17.10;65.20;;;;;;5042248;28;20225;-87
2021/10/20 09:05:35;;;;;;;2.03;1.77;;;17.40;56.00;;;;;;5040582;28;20226;-86
2021/10/20 09:08:02;;;;;;;4.43;1.58;;;18.00;54.10;;;;;;5037156;28;20205;-87
2021/10/20 09:10:31;;;;;;;4.03;1.90;;;19.30;51.70;;;;;;5036189;28;20231;-84
2021/10/20 09:12:59;;;;;;;4.07;1.80;;;21.40;40.80;;;;;;5036189;28;20272;-86
2021/10/20 09:15:28;;;;;;;6.40;1.98;;;23.50;34.80;;;;;;5035737;28;20712;-86
2021/10/20 09:17:58;;;;;;;2.28;1.73;;;25.40;27.20;;;;;;5033857;28;20263;-85
2021/10/20 09:20:28;;;;;;;4.57;2.10;;;26.40;22.30;;;;;;5033990;28;20230;-86
2021/10/20 09:22:59;;;;;;;2.85;2.10;;;26.50;21.30;;;;;;5031511;28;20200;-86
2021/10/20 09:25:32;;;;;;;2.80;2.10;;;26.80;21.50;;;;;;5031111;28;20222;-86
2021/10/20 09:27:59;;;;;;;4.32;2.60;;;27.50;19.50;;;;;;5029295;28;20198;-87
2021/10/20 09:30:28;;;;;;;6.45;2.17;;;28.40;18.50;;;;;;5030932;28;20220;-86
2021/10/20 09:32:57;;;;;;;4.47;2.35;;;28.00;17.60;;;;;;5034541;28;20198;-86
2021/10/20 09:35:24;;;;;;;2.97;2.30;;;28.80;17.60;;;;;;5029685;28;20222;-86
2021/10/20 09:37:58;;;;;;;2.30;2.00;;;29.40;16.30;;;;;;5031436;28;20195;-87
2021/10/20 09:40:32;;;;;;;2.67;2.08;;;29.40;16.30;;;;;;5043961;28;20279;-85
2021/10/20 09:42:59;;;;;;;5.05;2.53;;;28.90;16.10;;;;;;5036203;28;20205;-87
2021/10/20 09:45:26;;;;;;;3.08;2.45;;;28.50;16.50;;;;;;5027393;28;20254;-87
2021/10/20 09:47:55;;;;;;;3.08;2.42;;;28.80;16.70;;;;;;5028560;28;20199;-88
2021/10/20 09:50:22;;;;;;;2.80;2.60;;;28.20;15.80;;;;;;5020394;28;20219;-86
2021/10/20 09:52:50;;;;;;;5.15;2.40;;;28.10;16.30;;;;;;5028052;28;20206;-90
2021/10/20 09:55:27;;;;;;;2.50;2.30;;;28.40;15.80;;;;;;5033796;28;20234;-87
2021/10/20 09:57:56;;;;;;;2.60;2.30;;;28.30;15.80;;;;;;5039082;28;20206;-85
2021/10/20 10:00:23;;;;;;;2.50;2.30;;;28.50;15.90;;;;;;5029627;28;20748;-86
2021/10/20 10:02:52;;;;;;;2.50;2.30;;;28.60;15.10;;;;;;5034825;28;20208;-87
2021/10/20 10:05:18;;;;;;;2.10;2.00;;;29.20;15.00;;;;;;5036000;28;20225;-86
2021/10/20 10:07:46;;;;;;;3.97;2.30;;;29.60;12.50;;;;;;5034583;28;20688;-86
2021/10/20 10:10:13;;;;;;;2.50;2.13;;;29.60;14.10;;;;;;5040959;28;20280;-88
2021/10/20 10:12:43;;;;;;;2.40;2.20;;;29.40;14.10;;;;;;5039670;28;20224;-86
2021/10/20 10:15:12;;;;;;;2.97;2.08;;;29.30;14.40;;;;;;5031278;28;20241;-88
2021/10/20 10:17:41;;;;;;;2.65;2.00;;;29.20;15.90;;;;;;5032067;28;20565;-89
2021/10/20 10:20:11;;;;;;;11.25;2.85;;;28.60;13.90;;;;;;5031323;28;20264;-87
2021/10/20 10:22:49;;;;;;;2.42;1.80;;;27.70;15.50;;;;;;5032438;28;20198;-86
2021/10/20 10:25:16;;;;;;;1.90;1.80;;;27.70;15.50;;;;;;5030533;28;20236;-87
2021/10/20 10:28:05;;;;;;;2.30;2.10;;;27.70;16.50;;;;;;5032777;28;20194;-87
2021/10/20 10:30:35;;;;;;;2.20;1.90;;;27.80;16.80;;;;;;5030858;28;20230;-89
2021/10/20 10:33:03;;;;;;;2.15;2.05;;;28.30;15.80;;;;;;5031793;28;20202;-87
2021/10/20 10:35:35;;;;;;;2.20;2.00;;;28.30;15.80;;;;;;5032798;28;20941;-89
2021/10/20 10:38:06;;;;;;;2.38;2.05;;;28.10;15.70;;;;;;5031213;28;20198;-87
2021/10/20 10:40:33;;;;;;;2.08;1.90;;;27.70;15.50;;;;;;5027148;28;20296;-86
2021/10/20 10:43:11;;;;;;;4.88;2.08;;;27.80;15.60;;;;;;5044228;28;20231;-85
2021/10/20 10:45:38;;;;;;;2.70;2.00;;;27.70;17.40;;;;;;5044355;28;20228;-87
2021/10/20 10:48:07;;;;;;;2.47;1.98;;;27.20;15.20;;;;;;5040195;28;20199;-86
2021/10/20 10:50:43;;;;;;;5.03;1.90;;;27.10;16.00;;;;;;5039148;28;20218;-91
2021/10/20 10:53:25;;;;;;;2.08;1.90;;;26.90;15.10;;;;;;5045390;28;20277;-87
2021/10/20 10:56:03;;;;;;;2.53;2.00;;;26.10;17.30;;;;;;5045776;28;20229;-86
2021/10/20 10:58:31;;;;;;;2.45;2.00;;;25.70;19.70;;;;;;5037614;28;20220;-85
2021/10/20 11:00:58;;;;;;;2.20;2.00;;;25.10;19.50;;;;;;5023403;28;20222;-85
2021/10/20 11:03:28;;;;;;;3.35;1.73;;;24.50;20.40;;;;;;5021076;28;20559;-85
2021/10/20 11:05:58;;;;;;;2.33;1.77;;;23.80;22.90;;;;;;5033866;28;20231;-84
2021/10/20 11:08:32;;;;;;;2.22;1.77;;;23.40;22.40;;;;;;5042117;28;20208;-86
2021/10/20 11:11:00;;;;;;;2.78;1.73;;;23.00;23.20;;;;;;5029232;28;20236;-89
2021/10/20 11:13:28;;;;;;;2.25;1.92;;;22.70;24.90;;;;;;5015789;28;20301;-90
2021/10/20 11:15:57;;;;;;;2.60;2.00;;;22.80;24.50;;;;;;5035347;28;20310;-89
2021/10/20 11:18:24;;;;;;;2.88;2.33;;;22.60;23.70;;;;;;5033024;28;20650;-90
2021/10/20 11:20:55;;;;;;;3.58;1.88;;;22.30;25.00;;;;;;5033480;28;20673;-88
2021/10/20 11:23:22;;;;;;;4.57;1.80;;;22.30;25.00;;;;;;5042278;28;20234;-89
2021/10/20 11:25:50;;;;;;;3.30;1.80;;;22.10;25.80;;;;;;5033550;28;20768;-89
2021/10/20 11:28:18;;;;;;;3.35;1.80;;;22.10;25.70;;;;;;5034718;28;20700;-90
2021/10/20 11:30:46;;;;;;;2.40;2.05;;;22.10;25.50;;;;;;5032111;28;20237;-91
2021/10/20 11:33:16;;;;;;;3.38;2.45;;;22.10;27.30;;;;;;5036752;28;20556;-89
2021/10/20 11:35:43;;;;;;;4.13;2.13;;;22.00;26.20;;;;;;5040195;28;20230;-90
2021/10/20 11:38:12;;;;;;;3.15;1.90;;;21.90;24.80;;;;;;5041403;28;20256;-89
2021/10/20 11:40:42;;;;;;;3.97;2.08;;;21.80;25.60;;;;;;5020128;28;20201;-89
2021/10/20 11:43:20;;;;;;;5.30;2.20;;;21.80;25.50;;;;;;5042859;28;20567;-90
2021/10/20 11:45:48;;;;;;;4.68;2.00;;;21.70;26.30;;;;;;5038531;28;20217;-90
2021/10/20 11:48:23;;;;;;;2.28;2.00;;;21.80;25.10;;;;;;5036795;28;20202;-90
2021/10/20 11:50:52;;;;;;;5.13;2.20;;;21.70;25.30;;;;;;5043197;28;20225;-90
2021/10/20 11:53:20;;;;;;;2.17;1.85;;;21.70;25.70;;;;;;5047885;28;20205;-89
2021/10/20 11:55:52;;;;;;;4.57;2.03;;;21.70;26.00;;;;;;5046178;28;20265;-90
2021/10/20 11:58:21;;;;;;;3.25;2.10;;;21.70;24.50;;;;;;5040687;28;20256;-90
2021/10/20 12:00:53;;;;;;;2.63;2.00;;;21.80;25.10;;;;;;5048228;28;20544;-90
2021/10/20 12:03:32;;;;;;;3.15;2.03;;;21.70;26.00;;;;;;5042300;28;20208;-89
2021/10/20 12:06:06;;;;;;;2.83;2.08;;;21.90;24.80;;;;;;5050061;28;20226;-91
2021/10/20 12:08:34;;;;;;;2.30;2.10;;;21.80;25.30;;;;;;5038637;28;20197;-90
2021/10/20 12:11:02;;;;;;;3.55;1.98;;;21.80;25.80;;;;;;5041179;28;20230;-90
2021/10/20 12:13:29;;;;;;;4.22;2.03;;;21.70;27.00;;;;;;5042470;28;20316;-91
2021/10/20 12:15:58;;;;;;;4.40;2.20;;;21.60;26.70;;;;;;5039863;28;20625;-90
2021/10/20 12:18:27;;;;;;;2.67;2.03;;;21.70;27.70;;;;;;5042741;28;20208;-90
2021/10/20 12:21:11;;;;;;;2.40;2.20;;;21.70;26.90;;;;;;5057995;28;20225;-88
2021/10/20 12:23:41;;;;;;;2.88;1.90;;;21.80;25.90;;;;;;5055227;28;20202;-88
2021/10/20 12:36:51;;;;;;;2.75;2.20;;;21.90;24.50;;;;;;5048124;28;20220;-88
2021/10/20 12:39:42;;;;;;;4.03;2.10;;;21.80;25.10;;;;;;5042813;28;20286;-89
2021/10/20 12:49:46;;;;;;;2.33;2.05;;;21.80;26.30;;;;;;5041279;28;20183;-88
2021/10/20 13:03:00;;;;;;;2.78;2.05;;;21.20;27.50;;;;;;5047770;28;20550;-89
2021/10/20 13:05:26;;;;;;;4.85;2.33;;;21.10;27.70;;;;;;5048845;28;20237;-88
2021/10/20 13:07:55;;;;;;;4.20;2.40;;;21.10;27.50;;;;;;5058623;28;20197;-89
2021/10/20 13:10:23;;;;;;;3.70;2.42;;;21.10;28.20;;;;;;5052279;28;20231;-87
2021/10/20 13:16:33;;;;;;;6.55;2.35;;;21.00;28.70;;;;;;5046982;28;20229;-90
2021/10/20 13:19:12;;;;;;;2.53;2.20;;;21.00;29.30;;;;;;5043834;28;20231;-89
2021/10/20 13:21:39;;;;;;;2.95;2.30;;;21.00;28.60;;;;;;5047185;28;20301;-89
2021/10/20 13:44:43;;;;;;;6.50;2.45;;;20.60;31.40;;;;;;4980968;28;20168;-90
2021/10/20 13:50:32;;;;;;;5.70;2.53;;;20.30;32.30;;;;;;5046843;28;20197;-90
2021/10/20 13:55:41;;;;;;;5.85;2.63;;;20.20;32.20;;;;;;4997881;28;20290;-90
2021/10/20 13:58:08;;;;;;;3.88;2.33;;;20.20;32.20;;;;;;5055757;28;20208;-91
2021/10/20 14:00:35;;;;;;;2.38;2.17;;;20.10;32.20;;;;;;5044953;28;20293;-90
2021/10/20 14:03:02;;;;;;;4.53;2.60;;;20.00;32.10;;;;;;5038822;28;20265;-91
2021/10/20 14:05:33;;;;;;;2.92;2.30;;;20.00;32.10;;;;;;5048444;28;20268;-90
2021/10/20 14:14:26;;;;;;;3.20;2.20;;;19.70;31.80;;;;;;5006778;28;20224;-92
2021/10/20 14:16:54;;;;;;;3.05;2.25;;;19.70;31.80;;;;;;5052241;28;20213;-90
2021/10/20 14:19:21;;;;;;;3.35;2.28;;;19.50;35.00;;;;;;5036708;28;20282;-90
2021/10/20 14:21:48;;;;;;;5.22;2.38;;;19.50;34.20;;;;;;5018015;28;20250;-90
2021/10/20 14:24:15;;;;;;;4.85;2.30;;;19.40;33.60;;;;;;5018151;28;20650;-91
2021/10/20 14:29:34;;;;;;;3.80;2.63;;;19.40;33.00;;;;;;5035320;28;20206;-90
2021/10/20 14:32:01;;;;;;;4.30;2.20;;;19.40;34.20;;;;;;5035329;28;20226;-91
2021/10/20 14:34:44;;;;;;;3.38;2.47;;;19.30;34.70;;;;;;5036278;28;20203;-90
2021/10/20 14:37:13;;;;;;;3.13;2.38;;;19.20;35.00;;;;;;5031289;28;20234;-89
2021/10/20 14:39:40;;;;;;;5.40;2.20;;;19.10;34.80;;;;;;5037590;28;20233;-89
2021/10/20 14:42:09;;;;;;;3.30;2.40;;;19.00;34.50;;;;;;5036266;28;20244;-89
2021/10/20 14:44:44;;;;;;;5.22;2.40;;;19.00;35.60;;;;;;5037346;28;20215;-90
2021/10/20 14:47:26;;;;;;;3.50;2.13;;;19.00;35.20;;;;;;5045301;28;20224;-89
2021/10/20 14:49:54;;;;;;;5.25;2.33;;;18.90;35.70;;;;;;5027331;28;20208;-90
2021/10/20 14:52:21;;;;;;;2.25;2.05;;;18.80;35.90;;;;;;5048943;28;20289;-89
2021/10/20 14:54:48;;;;;;;4.28;2.45;;;18.70;36.70;;;;;;5050299;28;20298;-89
2021/10/20 14:57:16;;;;;;;3.22;2.38;;;18.70;37.80;;;;;;5036609;28;20694;-89
2021/10/20 14:59:45;;;;;;;3.28;2.20;;;18.60;36.90;;;;;;5038868;28;20224;-89
2021/10/20 15:02:12;;;;;;;3.42;2.50;;;18.60;37.20;;;;;;5047038;28;20212;-89
2021/10/20 15:04:40;;;;;;;2.60;2.33;;;18.50;37.70;;;;;;5046499;28;20297;-88
2021/10/20 15:07:07;;;;;;;2.47;2.28;;;18.50;39.00;;;;;;5041190;28;20229;-87
2021/10/20 15:09:34;;;;;;;5.15;2.53;;;18.40;38.50;;;;;;5040475;28;20205;-86
2021/10/20 15:12:01;;;;;;;3.80;2.35;;;18.40;37.70;;;;;;5041529;28;20245;-89
2021/10/20 15:14:29;;;;;;;2.40;2.20;;;18.30;38.60;;;;;;5039348;28;20281;-91
2021/10/20 15:17:03;;;;;;;2.90;2.40;;;18.30;39.30;;;;;;5033884;28;20236;-90
2021/10/20 15:19:36;;;;;;;3.05;2.00;;;18.30;38.30;;;;;;5035219;28;20190;-91
2021/10/20 15:22:04;;;;;;;3.05;2.55;;;18.20;39.30;;;;;;5033526;28;20288;-91
2021/10/20 15:24:31;;;;;;;3.03;2.38;;;18.20;40.00;;;;;;5034891;28;20213;-90
2021/10/20 15:26:58;;;;;;;2.35;1.98;;;18.10;40.10;;;;;;5035941;28;20202;-90
2021/10/20 15:29:30;;;;;;;2.88;2.47;;;18.00;40.70;;;;;;5038197;28;20224;-89
2021/10/20 15:31:56;;;;;;;3.28;2.40;;;18.00;41.90;;;;;;5036834;28;20234;-90
2021/10/20 15:34:27;;;;;;;2.50;2.22;;;17.90;42.60;;;;;;5032555;28;20206;-90
2021/10/20 15:36:54;;;;;;;2.55;2.10;;;17.80;44.10;;;;;;5033744;28;20712;-90
2021/10/20 15:39:21;;;;;;;2.80;2.50;;;17.70;45.10;;;;;;5041612;28;20632;-90
2021/10/20 15:41:48;;;;;;;2.47;2.13;;;17.60;46.70;;;;;;5040144;28;20241;-91
2021/10/20 15:44:15;;;;;;;5.43;2.80;;;17.50;47.80;;;;;;5041128;28;20194;-89
2021/10/20 15:49:27;;;;;;;4.50;2.80;;;17.30;53.40;;;;;;5037435;28;20245;-90
2021/10/20 15:51:54;;;;;;;5.07;3.00;;;17.30;53.40;;;;;;5039944;28;20226;-90
2021/10/20 15:54:21;;;;;;;3.00;2.80;;;17.30;53.40;;;;;;5040796;28;20206;-88
2021/10/20 15:56:49;;;;;;;3.78;3.17;;;17.20;54.10;;;;;;5043618;28;20236;-88
2021/10/20 15:59:15;;;;;;;4.70;2.83;;;17.10;54.50;;;;;;5050267;28;20237;-88
2021/10/20 16:01:42;;;;;;;3.20;2.90;;;17.00;55.90;;;;;;5049413;28;20221;-90
2021/10/20 16:04:11;;;;;;;6.47;3.20;;;16.90;57.80;;;;;;5043011;28;20217;-88
2021/10/20 16:06:38;;;;;;;4.53;3.58;;;16.80;58.90;;;;;;5043212;28;20229;-89
2021/10/20 16:09:05;;;;;;;6.78;3.40;;;16.70;60.40;;;;;;5037776;28;20249;-91
2021/10/20 16:11:32;;;;;;;5.38;2.78;;;16.60;62.70;;;;;;5045394;28;20283;-90
2021/10/20 16:14:01;;;;;;;8.70;2.95;;;16.50;63.60;;;;;;5035806;28;20258;-87
2021/10/20 16:16:28;;;;;;;4.32;2.97;;;16.40;64.70;;;;;;5020012;28;20230;-92
2021/10/20 16:18:55;;;;;;;8.60;3.10;;;16.30;65.50;;;;;;5037101;28;20229;-92
2021/10/20 16:21:24;;;;;;;4.72;2.78;;;16.30;67.40;;;;;;5040935;28;20235;-90
2021/10/20 16:23:51;;;;;;;4.28;2.70;;;16.20;67.50;;;;;;5052344;28;20195;-89
2021/10/20 16:26:18;;;;;;;5.53;2.60;;;16.10;67.50;;;;;;5036817;28;20304;-90
2021/10/20 16:28:45;;;;;;;3.88;2.63;;;16.00;69.90;;;;;;5038535;28;20198;-92
2021/10/20 16:31:12;;;;;;;5.38;2.83;;;15.90;68.10;;;;;;5037865;28;20303;-91
2021/10/20 16:33:40;;;;;;;5.00;3.20;;;15.80;68.70;;;;;;5019132;28;20721;-92
2021/10/20 16:36:10;;;;;;;4.07;2.60;;;15.70;71.50;;;;;;5038460;28;20222;-91
2021/10/20 16:38:40;;;;;;;3.55;3.00;;;15.70;71.20;;;;;;5035328;28;20642;-90
2021/10/20 16:41:07;;;;;;;3.10;2.80;;;15.60;70.70;;;;;;5030826;28;20226;-92
2021/10/20 16:43:34;;;;;;;3.15;2.72;;;15.50;71.50;;;;;;5035231;28;20293;-92
2021/10/20 16:46:01;;;;;;;4.07;2.95;;;15.50;72.90;;;;;;5036862;28;20244;-90
2021/10/20 16:48:29;;;;;;;4.82;3.10;;;15.40;73.20;;;;;;5025075;28;20206;-91
2021/10/20 16:50:56;;;;;;;3.60;2.95;;;15.40;75.10;;;;;;5031542;28;20222;-91
2021/10/20 16:53:23;;;;;;;4.15;2.95;;;15.40;75.40;;;;;;5038483;28;20209;-91
2021/10/20 16:55:52;;;;;;;5.03;3.08;;;15.40;75.60;;;;;;5035845;28;20697;-90
2021/10/20 16:58:19;;;;;;;3.42;2.60;;;15.30;77.50;;;;;;5035837;28;20227;-90
2021/10/20 17:00:46;;;;;;;3.30;2.90;;;15.30;77.20;;;;;;5036147;28;20238;-90
2021/10/20 17:03:35;;;;;;;4.03;2.80;;;15.30;77.50;;;;;;5036552;28;20685;-89
2021/10/20 17:06:02;;;;;;;3.15;2.80;;;15.30;77.50;;;;;;5034503;28;20225;-92
2021/10/20 17:08:29;;;;;;;3.70;2.97;;;15.30;77.50;;;;;;5031952;28;20261;-91
2021/10/20 17:10:58;;;;;;;6.65;3.13;;;15.20;77.50;;;;;;5031946;28;20220;-90
2021/10/20 17:13:26;;;;;;;4.28;2.83;;;15.20;77.50;;;;;;5033222;28;20225;-92
2021/10/20 17:15:53;;;;;;;3.58;3.17;;;15.00;77.30;;;;;;5035041;28;20214;-92
2021/10/20 17:18:21;;;;;;;4.22;2.80;;;15.00;78.70;;;;;;5031936;28;20229;-92
2021/10/20 17:20:48;;;;;;;4.70;3.25;;;15.00;77.60;;;;;;5024957;28;20232;-89
2021/10/20 17:23:16;;;;;;;5.35;3.75;;;15.10;78.60;;;;;;5032165;28;20205;-90
2021/10/20 17:25:44;;;;;;;4.32;3.67;;;15.10;79.00;;;;;;5032207;28;20740;-91
2021/10/20 17:28:13;;;;;;;6.25;3.70;;;15.10;79.90;;;;;;5028111;28;20206;-91
2021/10/20 17:30:41;;;;;;;5.38;3.58;;;15.10;80.20;;;;;;5030046;28;20238;-92
2021/10/20 17:33:08;;;;;;;4.18;3.22;;;15.00;80.90;;;;;;5029659;28;20209;-91
2021/10/20 17:35:35;;;;;;;3.90;3.33;;;14.90;80.60;;;;;;5029928;28;20230;-90
2021/10/20 17:38:02;;;;;;;4.00;3.60;;;15.00;80.40;;;;;;5029358;28;20226;-90
2021/10/20 17:40:29;;;;;;;5.70;3.53;;;15.00;79.80;;;;;;5026639;28;20214;-90
2021/10/20 17:42:56;;;;;;;7.43;3.85;;;15.00;78.80;;;;;;5029852;28;20205;-90
2021/10/20 17:45:25;;;;;;;7.07;4.00;;;15.00;77.30;;;;;;5028711;28;20222;-91
2021/10/20 17:47:54;;;;;;;5.20;3.17;;;15.10;77.40;;;;;;5028456;28;20199;-91
2021/10/20 17:50:21;;;;;;;5.57;3.50;;;15.10;77.40;;;;;;5027440;28;20226;-90
2021/10/20 17:52:47;;;;;;;3.78;3.22;;;15.10;77.40;;;;;;5030585;28;20207;-91
2021/10/20 17:55:14;;;;;;;3.78;2.97;;;15.10;76.50;;;;;;5030175;28;20701;-91
2021/10/20 17:57:42;;;;;;;3.75;3.28;;;15.20;75.20;;;;;;5027693;28;20230;-91
2021/10/20 18:00:11;;;;;;;5.10;3.15;;;15.20;74.40;;;;;;5031444;28;20690;-90
2021/10/20 18:02:40;;;;;;;5.10;2.95;;;15.20;73.20;;;;;;5029316;28;20203;-91
2021/10/20 18:05:09;;;;;;;4.40;3.30;;;15.20;73.20;;;;;;5029339;28;20309;-91
2021/10/20 18:07:36;;;;;;;5.70;3.15;;;15.10;73.60;;;;;;5028713;28;20561;-91
2021/10/20 18:10:04;;;;;;;3.53;3.22;;;15.10;75.00;;;;;;5031015;28;20297;-91
2021/10/20 18:12:33;;;;;;;4.60;2.83;;;15.10;76.20;;;;;;5028311;28;20716;-90
2021/10/20 18:15:00;;;;;;;4.78;3.70;;;15.00;76.80;;;;;;5030167;28;20215;-91
2021/10/20 18:17:27;;;;;;;3.83;3.53;;;15.00;76.60;;;;;;5028274;28;20300;-91
2021/10/20 18:19:56;;;;;;;4.82;3.60;;;15.00;77.30;;;;;;5027030;28;20260;-91
2021/10/20 18:22:24;;;;;;;6.40;3.30;;;15.00;77.30;;;;;;5030095;28;20213;-90
2021/10/20 18:28:02;;;;;;;4.78;3.58;;;14.90;77.20;;;;;;5102204;27;1294210;-92
2021/10/20 18:30:31;;;;;;;5.20;3.53;;;14.80;78.20;;;;;;5101783;28;20763;-92
2021/10/20 18:33:04;;;;;;;4.20;3.80;;;14.70;78.70;;;;;;5054895;28;20205;-92
2021/10/20 18:35:32;;;;;;;5.00;3.40;;;14.70;79.60;;;;;;5035707;28;20256;-93
2021/10/20 18:38:02;;;;;;;4.13;3.55;;;14.70;80.20;;;;;;5058936;28;20201;-90
2021/10/20 18:40:31;;;;;;;6.72;3.78;;;14.60;81.30;;;;;;5061314;28;20217;-92
2021/10/20 18:42:59;;;;;;;6.43;4.07;;;14.50;81.70;;;;;;5071263;28;20292;-93
2021/10/20 18:45:27;;;;;;;6.07;3.85;;;14.50;82.20;;;;;;5064221;28;20280;-91
2021/10/20 18:47:54;;;;;;;4.38;3.97;;;14.40;82.80;;;;;;5063941;28;20235;-91
2021/10/20 18:50:21;;;;;;;5.20;3.55;;;14.30;82.90;;;;;;5067351;28;20245;-90
2021/10/20 18:52:48;;;;;;;5.78;3.60;;;14.20;83.20;;;;;;5068617;28;20602;-92
2021/10/20 18:55:16;;;;;;;5.25;3.95;;;14.30;84.10;;;;;;5072927;28;20691;-92
2021/10/20 18:57:43;;;;;;;5.75;3.95;;;14.30;84.30;;;;;;5084110;28;20228;-91
2021/10/20 19:00:14;;;;;;;7.20;4.05;;;14.30;83.70;;;;;;5089802;28;20798;-90
2021/10/20 19:02:42;;;;;;;8.25;4.10;;;14.30;83.70;;;;;;5097198;28;20235;-89
2021/10/20 19:05:09;;;;;;;5.43;4.15;;;14.20;84.20;;;;;;5090312;28;20232;-89
2021/10/20 19:07:38;;;;;;;5.30;4.00;;;14.20;84.90;;;;;;5079401;28;20219;-90
2021/10/20 19:10:07;;;;;;;5.53;4.05;;;14.10;85.30;;;;;;5078756;28;20206;-91
2021/10/20 19:12:34;;;;;;;7.32;4.00;;;14.10;85.30;;;;;;5084870;28;20221;-89
2021/10/20 19:15:02;;;;;;;5.30;4.70;;;14.10;85.20;;;;;;5086863;28;20236;-93
2021/10/20 19:17:40;;;;;;;6.80;4.45;;;14.10;85.90;;;;;;5081277;28;20198;-90
2021/10/20 19:20:07;;;;;;;6.30;4.97;;;14.00;86.00;;;;;;5071055;28;20217;-90
2021/10/20 19:22:35;;;;;;;8.27;4.05;;;13.90;86.10;;;;;;5068664;28;20666;-91
2021/10/20 19:25:08;;;;;;;6.07;5.07;;;13.80;86.80;;;;;;5080273;28;20198;-89
2021/10/20 19:27:36;;;;;;;6.25;4.85;;;13.80;87.30;;;;;;5057631;28;20232;-89
2021/10/20 19:30:03;;;;;;;5.20;4.70;;;13.80;88.00;;;;;;5079512;28;20198;-89
2021/10/20 19:35:13;;;;;;;4.65;4.15;;;13.70;88.60;;;;;;5096066;28;20243;-90
2021/10/20 19:37:41;;;;;;;5.13;4.30;;;13.70;89.00;;;;;;5098077;28;20205;-90
2021/10/20 19:42:53;;;;;;;6.38;4.28;;;13.60;89.30;;;;;;5114712;28;20233;-89